Tyre, New York
Current Conditions -  °F | °C
As of 7:53 PM on Monday 26 Jan 2015 (Local Time) from KPEO Reporting Station
Light Snow Light Snow  
Wind Chill: -9°   Ceiling: 1700
Heat Index: -9°   Visibility: 1.2mi
Dew Point: -11°   Wind: 3mph
Humidity: 88%   Direction: NA
Pressure: 29.91"   Gusts: NA
Location:  42.9691°N, 76.7961°W
Report Text: KPEO 270053Z AUTO VRB03KT 1 1/4SM -SN BR OVC017 M09/M11 A2991 RMK AO2 SLP147 P0001 T10941111
Loading
Personal Weather Stations






























Interactive Weather Map New forecast layout! Learn more

10-Day Weather Forecast

Advertisements
Track Severe Weather on mobile